createdAt,value
2023-02-16T00:00:50.419Z,4.65
2023-02-16T00:01:50.426Z,4.72
2023-02-16T00:02:50.394Z,4.70
2023-02-16T00:03:50.526Z,4.65
2023-02-16T00:04:50.374Z,4.73
2023-02-16T00:05:50.365Z,4.55
2023-02-16T00:06:50.390Z,4.65
2023-02-16T00:07:50.345Z,4.54
2023-02-16T00:08:50.339Z,4.44
2023-02-16T00:09:50.308Z,4.52
2023-02-16T00:10:50.321Z,4.43
2023-02-16T00:11:50.298Z,4.47
2023-02-16T00:12:50.291Z,4.54
2023-02-16T00:13:50.270Z,4.59
2023-02-16T00:14:50.276Z,4.51
2023-02-16T00:15:50.311Z,4.47
2023-02-16T00:16:50.266Z,4.54
2023-02-16T00:17:50.229Z,4.47
2023-02-16T00:18:50.227Z,4.43
2023-02-16T00:19:50.233Z,4.40
2023-02-16T00:20:50.207Z,4.37
2023-02-16T00:21:50.214Z,4.42
2023-02-16T00:22:50.168Z,4.32
2023-02-16T00:23:50.152Z,4.40
2023-02-16T00:24:50.148Z,4.29
2023-02-16T00:25:50.159Z,4.42
2023-02-16T00:26:50.138Z,4.36
2023-02-16T00:27:50.108Z,4.21
2023-02-16T00:28:50.116Z,4.29
2023-02-16T00:29:50.140Z,4.33
2023-02-16T00:30:50.235Z,4.32
2023-02-16T00:31:50.223Z,4.29
2023-02-16T00:32:50.056Z,4.34
2023-02-16T00:33:50.057Z,4.33
2023-02-16T00:34:50.046Z,4.14
2023-02-16T00:35:50.067Z,4.16
2023-02-16T00:36:50.055Z,4.18
2023-02-16T00:37:50.012Z,4.19
2023-02-16T00:38:49.994Z,4.24
2023-02-16T00:39:49.981Z,4.29
2023-02-16T00:40:49.997Z,4.28
2023-02-16T00:41:49.958Z,4.19
2023-02-16T00:42:49.961Z,4.14
2023-02-16T00:43:49.945Z,4.10
2023-02-16T00:44:49.943Z,4.18
2023-02-16T00:45:49.981Z,4.12
2023-02-16T00:46:49.925Z,4.15
2023-02-16T00:47:49.920Z,4.18
2023-02-16T00:48:49.879Z,4.14
2023-02-16T00:49:49.874Z,4.16
2023-02-16T00:50:49.881Z,4.03
2023-02-16T00:51:49.895Z,4.14
2023-02-16T00:52:49.868Z,4.14
2023-02-16T00:53:49.833Z,4.14
2023-02-16T00:54:49.826Z,4.07
2023-02-16T00:55:49.803Z,4.08
2023-02-16T00:56:49.847Z,3.98
2023-02-16T00:57:49.793Z,4.12
2023-02-16T00:58:49.784Z,3.86
2023-02-16T00:59:49.768Z,4.01
2023-02-16T01:00:49.768Z,3.98
2023-02-16T01:01:49.894Z,3.98
2023-02-16T01:02:49.737Z,3.82
2023-02-16T01:03:49.730Z,3.83
2023-02-16T01:04:49.743Z,3.80
2023-02-16T01:05:49.686Z,3.72
2023-02-16T01:06:49.691Z,3.75
2023-02-16T01:07:49.689Z,3.86
2023-02-16T01:08:49.659Z,3.79
2023-02-16T01:09:49.656Z,3.80
2023-02-16T01:10:49.639Z,3.82
2023-02-16T01:11:49.655Z,3.85
2023-02-16T01:12:49.615Z,3.80
2023-02-16T01:13:49.595Z,3.78
2023-02-16T01:14:49.598Z,3.76
2023-02-16T01:15:49.645Z,3.83
2023-02-16T01:16:49.563Z,3.71
2023-02-16T01:17:49.582Z,3.68
2023-02-16T01:18:49.542Z,3.75
2023-02-16T01:19:49.529Z,3.70
2023-02-16T01:20:49.532Z,3.65
2023-02-16T01:21:49.506Z,3.75
2023-02-16T01:22:49.510Z,3.72
2023-02-16T01:23:49.506Z,3.64
2023-02-16T01:24:49.492Z,3.71
2023-02-16T01:25:49.475Z,3.72
2023-02-16T01:26:49.467Z,3.82
2023-02-16T01:27:49.463Z,3.72
2023-02-16T01:28:49.424Z,3.75
2023-02-16T01:29:49.419Z,3.83
2023-02-16T01:30:49.470Z,3.76
2023-02-16T01:31:49.564Z,3.78
2023-02-16T01:32:49.411Z,3.70
2023-02-16T01:33:49.385Z,3.76
2023-02-16T01:34:49.389Z,3.65
2023-02-16T01:35:49.362Z,3.72
2023-02-16T01:36:49.360Z,3.57
2023-02-16T01:37:49.343Z,3.67
2023-02-16T01:38:50.258Z,3.62
2023-02-16T01:39:49.349Z,3.57
2023-02-16T01:40:49.310Z,3.53
2023-02-16T01:41:49.304Z,3.44
2023-02-16T01:42:49.293Z,3.50
2023-02-16T01:43:49.275Z,3.58
2023-02-16T01:44:49.286Z,3.49
2023-02-16T01:45:49.253Z,3.64
2023-02-16T01:46:49.294Z,3.65
2023-02-16T01:47:49.230Z,3.70
2023-02-16T01:48:49.231Z,3.64
2023-02-16T01:49:49.197Z,3.61
2023-02-16T01:50:49.202Z,3.70
2023-02-16T01:51:49.184Z,3.62
2023-02-16T01:52:49.168Z,3.57
2023-02-16T01:53:49.156Z,3.64
2023-02-16T01:54:49.155Z,3.61
2023-02-16T01:55:49.209Z,3.58
2023-02-16T01:56:49.124Z,3.52
2023-02-16T01:57:49.105Z,3.53
2023-02-16T01:58:49.104Z,3.53
2023-02-16T01:59:49.118Z,3.57
2023-02-16T02:00:49.089Z,3.47
2023-02-16T02:01:49.105Z,3.61
2023-02-16T02:02:49.084Z,3.52
2023-02-16T02:03:49.037Z,3.44
2023-02-16T02:04:49.059Z,3.53
2023-02-16T02:05:49.031Z,3.60
2023-02-16T02:06:49.031Z,3.47
2023-02-16T02:07:49.011Z,3.52
2023-02-16T02:08:49.003Z,3.44
2023-02-16T02:09:49.007Z,3.44
2023-02-16T02:10:48.976Z,3.54
2023-02-16T02:11:48.969Z,3.44
2023-02-16T02:12:49.004Z,3.43
2023-02-16T02:13:48.945Z,3.47
2023-02-16T02:14:48.941Z,3.44
2023-02-16T02:15:48.998Z,3.39
2023-02-16T02:16:48.897Z,3.46
2023-02-16T02:17:48.881Z,3.33
2023-02-16T02:18:48.894Z,3.44
2023-02-16T02:19:48.872Z,3.30
2023-02-16T02:20:48.887Z,3.31
2023-02-16T02:21:48.836Z,3.24
2023-02-16T02:22:48.827Z,3.27
2023-02-16T02:23:48.826Z,3.30
2023-02-16T02:24:48.818Z,3.25
2023-02-16T02:25:48.819Z,3.16
2023-02-16T02:26:48.784Z,3.13
2023-02-16T02:27:48.962Z,3.20
2023-02-16T02:28:48.760Z,3.23
2023-02-16T02:29:48.750Z,3.31
2023-02-16T02:30:48.805Z,3.21
2023-02-16T02:31:48.835Z,3.23
2023-02-16T02:32:48.717Z,3.28
2023-02-16T02:33:48.700Z,3.30
2023-02-16T02:34:48.700Z,3.23
2023-02-16T02:35:48.711Z,3.18
2023-02-16T02:36:48.688Z,3.09
2023-02-16T02:37:48.659Z,3.24
2023-02-16T02:38:48.654Z,3.23
2023-02-16T02:39:48.658Z,3.15
2023-02-16T02:40:48.660Z,3.13
2023-02-16T02:41:48.616Z,3.10
2023-02-16T02:42:48.620Z,3.16
2023-02-16T02:43:48.614Z,3.10
2023-02-16T02:44:48.609Z,3.02
2023-02-16T02:45:48.566Z,2.98
2023-02-16T02:46:48.609Z,2.97
2023-02-16T02:47:48.563Z,2.94
2023-02-16T02:48:48.543Z,2.91
2023-02-16T02:49:48.537Z,3.02
2023-02-16T02:50:48.530Z,2.92
2023-02-16T02:51:48.519Z,2.95
2023-02-16T02:52:48.508Z,3.00
2023-02-16T02:53:48.501Z,2.97
2023-02-16T02:54:48.471Z,2.97
2023-02-16T02:55:48.469Z,2.98
2023-02-16T02:56:48.479Z,2.89
2023-02-16T02:57:48.451Z,2.92
2023-02-16T02:58:48.443Z,2.95
2023-02-16T02:59:48.506Z,2.98
2023-02-16T03:00:48.508Z,2.95
2023-02-16T03:01:48.470Z,2.95
2023-02-16T03:02:48.406Z,3.00
2023-02-16T03:03:48.380Z,2.95
2023-02-16T03:04:48.362Z,2.94
2023-02-16T03:05:48.367Z,2.98
2023-02-16T03:06:48.352Z,2.92
2023-02-16T03:07:48.353Z,2.87
2023-02-16T03:08:48.327Z,3.00
2023-02-16T03:09:48.317Z,2.88
2023-02-16T03:10:48.303Z,2.85
2023-02-16T03:11:48.612Z,2.87
2023-02-16T03:12:48.274Z,2.82
2023-02-16T03:13:48.270Z,2.76
2023-02-16T03:14:48.268Z,2.84
2023-02-16T03:15:48.273Z,2.81
2023-02-16T03:16:48.377Z,2.89
2023-02-16T03:17:48.222Z,2.91
2023-02-16T03:18:48.207Z,2.88
2023-02-16T03:19:48.205Z,3.03
2023-02-16T03:20:48.183Z,2.98
2023-02-16T03:21:48.198Z,3.06
2023-02-16T03:22:48.162Z,3.09
2023-02-16T03:23:48.147Z,3.05
2023-02-16T03:24:48.138Z,2.97
2023-02-16T03:25:48.132Z,2.91
2023-02-16T03:26:48.141Z,2.98
2023-02-16T03:27:48.116Z,2.98
2023-02-16T03:28:48.113Z,2.94
2023-02-16T03:29:48.090Z,3.09
2023-02-16T03:30:48.243Z,2.95
2023-02-16T03:31:48.168Z,2.94
2023-02-16T03:32:48.059Z,3.09
2023-02-16T03:33:48.035Z,2.98
2023-02-16T03:34:48.022Z,3.05
2023-02-16T03:35:48.013Z,2.88
2023-02-16T03:36:48.007Z,2.92
2023-02-16T03:37:47.991Z,2.91
2023-02-16T03:38:47.981Z,2.92
2023-02-16T03:39:47.961Z,2.88
2023-02-16T03:40:47.957Z,2.85
2023-02-16T03:41:47.972Z,2.97
2023-02-16T03:42:47.933Z,2.87
2023-02-16T03:43:47.920Z,2.81
2023-02-16T03:44:47.924Z,2.91
2023-02-16T03:45:47.974Z,2.98
2023-02-16T03:46:47.920Z,2.95
2023-02-16T03:47:47.922Z,2.91
2023-02-16T03:48:47.865Z,3.00
2023-02-16T03:49:47.865Z,3.10
2023-02-16T03:50:47.844Z,3.15
2023-02-16T03:51:47.846Z,3.16
2023-02-16T03:52:47.825Z,3.13
2023-02-16T03:53:47.824Z,3.23
2023-02-16T03:54:47.810Z,3.36
2023-02-16T03:55:47.794Z,3.43
2023-02-16T03:56:47.792Z,3.36
2023-02-16T03:57:47.776Z,3.43
2023-02-16T03:58:47.774Z,3.49
2023-02-16T03:59:47.743Z,3.46
2023-02-16T04:00:47.735Z,3.47
2023-02-16T04:01:47.803Z,3.36
2023-02-16T04:02:47.716Z,3.50
2023-02-16T04:03:47.807Z,3.42
2023-02-16T04:04:47.695Z,3.43
2023-02-16T04:05:47.675Z,3.44
2023-02-16T04:06:47.693Z,3.49
2023-02-16T04:07:47.665Z,3.49
2023-02-16T04:08:47.665Z,3.46
2023-02-16T04:09:47.637Z,3.53
2023-02-16T04:10:47.630Z,3.54
2023-02-16T04:11:47.635Z,3.46
2023-02-16T04:12:47.621Z,3.39
2023-02-16T04:13:47.642Z,3.39
2023-02-16T04:14:47.593Z,3.40
2023-02-16T04:15:47.577Z,3.39
2023-02-16T04:16:47.648Z,3.43
2023-02-16T04:17:47.543Z,3.44
2023-02-16T04:18:47.552Z,3.31
2023-02-16T04:19:47.547Z,3.31
2023-02-16T04:20:47.524Z,3.33
2023-02-16T04:21:47.528Z,3.39
2023-02-16T04:22:47.514Z,3.34
2023-02-16T04:23:47.476Z,3.39
2023-02-16T04:24:47.472Z,3.39
2023-02-16T04:25:47.470Z,3.33
2023-02-16T04:26:47.461Z,3.25
2023-02-16T04:27:47.459Z,3.25
2023-02-16T04:28:47.423Z,3.31
2023-02-16T04:29:47.408Z,3.25
2023-02-16T04:30:47.536Z,3.30
2023-02-16T04:31:47.502Z,3.09
2023-02-16T04:32:47.405Z,3.07
2023-02-16T04:33:47.373Z,3.16
2023-02-16T04:34:47.434Z,3.27
2023-02-16T04:35:47.376Z,3.16
2023-02-16T04:36:47.349Z,3.18
2023-02-16T04:37:47.331Z,3.12
2023-02-16T04:38:47.311Z,3.10
2023-02-16T04:39:47.308Z,3.16
2023-02-16T04:40:47.306Z,3.15
2023-02-16T04:41:47.283Z,3.13
2023-02-16T04:42:47.272Z,3.13
2023-02-16T04:43:47.269Z,3.09
2023-02-16T04:44:47.248Z,3.21
2023-02-16T04:45:47.257Z,3.07
2023-02-16T04:46:47.232Z,3.10
2023-02-16T04:47:47.218Z,3.18
2023-02-16T04:48:47.228Z,3.15
2023-02-16T04:49:49.240Z,3.13
2023-02-16T04:50:47.177Z,3.10
2023-02-16T04:51:47.215Z,3.12
2023-02-16T04:52:47.166Z,3.12
2023-02-16T04:53:47.139Z,3.09
2023-02-16T04:54:47.129Z,3.07
2023-02-16T04:55:47.113Z,3.10
2023-02-16T04:56:47.126Z,3.07
2023-02-16T04:57:47.109Z,3.06
2023-02-16T04:58:47.085Z,3.03
2023-02-16T04:59:47.085Z,3.09
2023-02-16T05:00:47.074Z,3.10
2023-02-16T05:01:47.072Z,3.06
2023-02-16T05:02:47.055Z,3.06
2023-02-16T05:03:47.023Z,2.98
2023-02-16T05:04:47.090Z,2.94
2023-02-16T05:05:47.014Z,2.94
2023-02-16T05:06:47.054Z,3.02
2023-02-16T05:07:47.835Z,2.98
2023-02-16T05:08:46.987Z,2.95
2023-02-16T05:09:46.966Z,3.10
2023-02-16T05:10:46.962Z,3.02
2023-02-16T05:11:46.937Z,2.92
2023-02-16T05:12:46.957Z,3.03
2023-02-16T05:13:46.910Z,3.09
2023-02-16T05:14:46.911Z,2.95
2023-02-16T05:15:46.935Z,2.89
2023-02-16T05:16:46.917Z,2.94
2023-02-16T05:17:46.901Z,2.94
2023-02-16T05:18:46.864Z,2.95
2023-02-16T05:19:46.857Z,3.06
2023-02-16T05:20:46.851Z,2.94
2023-02-16T05:21:46.826Z,3.00
2023-02-16T05:22:46.903Z,2.92
2023-02-16T05:23:46.823Z,2.94
2023-02-16T05:24:46.811Z,3.03
2023-02-16T05:25:46.796Z,2.92
2023-02-16T05:26:46.796Z,2.95
2023-02-16T05:27:46.770Z,3.00
2023-02-16T05:28:46.764Z,2.91
2023-02-16T05:29:46.741Z,2.89
2023-02-16T05:30:46.853Z,2.88
2023-02-16T05:31:46.849Z,2.88
2023-02-16T05:32:46.738Z,2.88
2023-02-16T05:33:46.689Z,2.89
2023-02-16T05:34:46.682Z,2.94
2023-02-16T05:35:46.681Z,2.87
2023-02-16T05:36:46.677Z,2.76
2023-02-16T05:37:46.678Z,2.77
2023-02-16T05:38:46.638Z,2.81
2023-02-16T05:41:22.590Z,2.85
2023-02-16T05:43:08.243Z,2.77
2023-02-16T05:44:54.493Z,2.76
2023-02-16T05:46:32.919Z,2.67
2023-02-16T05:48:14.604Z,2.66
2023-02-16T05:50:10.519Z,2.71
2023-02-16T05:51:45.375Z,2.64
2023-02-16T05:53:08.229Z,2.74
2023-02-16T05:54:27.504Z,2.63
2023-02-16T05:55:54.399Z,2.61
2023-02-16T05:57:21.911Z,2.66
2023-02-16T05:58:47.647Z,2.63
2023-02-16T06:00:15.056Z,2.61
2023-02-16T06:01:41.362Z,2.56
2023-02-16T06:03:16.405Z,2.59
2023-02-16T06:04:38.743Z,2.61
2023-02-16T06:06:04.440Z,2.46
2023-02-16T06:07:29.209Z,2.45
2023-02-16T06:08:54.892Z,2.46
2023-02-16T06:10:24.201Z,2.45
2023-02-16T06:11:54.420Z,2.41
2023-02-16T06:13:21.955Z,2.34
2023-02-16T06:14:50.908Z,2.28
2023-02-16T06:16:20.843Z,2.28
2023-02-16T06:17:48.624Z,2.40
2023-02-16T06:19:16.109Z,2.16
2023-02-16T06:20:40.869Z,2.27
2023-02-16T06:21:40.873Z,2.26
2023-02-16T06:22:56.528Z,2.27
2023-02-16T06:23:56.538Z,2.26
2023-02-16T06:24:56.506Z,2.26
2023-02-16T06:25:56.483Z,2.27
2023-02-16T06:26:56.489Z,2.23
2023-02-16T06:27:56.476Z,2.22
2023-02-16T06:28:56.582Z,2.23
2023-02-16T06:29:56.483Z,2.15
2023-02-16T06:30:56.494Z,2.20
2023-02-16T06:31:56.543Z,2.26
2023-02-16T06:32:56.417Z,2.16
2023-02-16T06:33:56.408Z,2.22
2023-02-16T06:34:56.402Z,2.22
2023-02-16T06:35:56.375Z,2.22
2023-02-16T06:36:56.364Z,2.40
2023-02-16T06:37:56.481Z,2.30
2023-02-16T06:38:56.335Z,2.30
2023-02-16T06:39:56.349Z,2.34
2023-02-16T06:40:56.325Z,2.26
2023-02-16T06:41:56.318Z,2.27
2023-02-16T06:42:56.318Z,2.35
2023-02-16T06:43:56.300Z,2.46
2023-02-16T06:44:56.292Z,2.49
2023-02-16T06:45:56.264Z,2.45
2023-02-16T06:46:56.329Z,2.48
2023-02-16T06:47:56.253Z,2.55
2023-02-16T06:48:56.222Z,2.55
2023-02-16T06:49:56.232Z,2.67
2023-02-16T06:50:56.200Z,2.64
2023-02-16T06:51:56.213Z,2.70
2023-02-16T06:52:56.200Z,2.69
2023-02-16T06:53:56.191Z,2.66
2023-02-16T06:54:56.158Z,2.69
2023-02-16T06:55:56.154Z,2.70
2023-02-16T06:56:56.148Z,2.73
2023-02-16T06:57:56.160Z,2.74
2023-02-16T06:58:56.154Z,2.79
2023-02-16T06:59:56.120Z,2.69
2023-02-16T07:00:56.152Z,2.87
2023-02-16T07:01:56.099Z,2.82
2023-02-16T07:02:56.163Z,2.73
2023-02-16T07:03:56.063Z,2.81
2023-02-16T07:04:56.060Z,2.85
2023-02-16T07:05:56.054Z,2.85
2023-02-16T07:06:56.033Z,2.81
2023-02-16T07:07:56.049Z,2.92
2023-02-16T07:08:56.016Z,2.92
2023-02-16T07:09:55.995Z,2.91
2023-02-16T07:10:56.001Z,2.92
2023-02-16T07:11:55.973Z,3.09
2023-02-16T07:12:55.970Z,3.06
2023-02-16T07:13:55.970Z,3.09
2023-02-16T07:14:55.932Z,3.00
2023-02-16T07:15:55.934Z,3.09
2023-02-16T07:16:55.939Z,3.09
2023-02-16T07:17:55.904Z,3.12
2023-02-16T07:18:55.904Z,3.15
2023-02-16T07:19:57.706Z,3.13
2023-02-16T07:20:55.877Z,3.10
2023-02-16T07:21:55.860Z,3.18
2023-02-16T07:22:55.844Z,3.27
2023-02-16T07:23:55.864Z,3.30
2023-02-16T07:24:55.848Z,3.42
2023-02-16T07:25:55.828Z,3.25
2023-02-16T07:26:55.830Z,3.42
2023-02-16T07:27:55.795Z,3.44
2023-02-16T07:28:55.798Z,3.52
2023-02-16T07:29:55.835Z,3.57
2023-02-16T07:30:55.820Z,3.58
2023-02-16T07:31:55.941Z,3.61
2023-02-16T07:32:55.787Z,3.52
2023-02-16T07:33:55.747Z,3.58
2023-02-16T07:34:55.717Z,3.70
2023-02-16T07:35:55.703Z,3.61
2023-02-16T07:36:55.687Z,3.70
2023-02-16T07:37:55.679Z,3.57
2023-02-16T07:38:55.698Z,3.65
2023-02-16T07:39:55.662Z,3.70
2023-02-16T07:40:55.655Z,3.70
2023-02-16T07:41:55.634Z,3.62
2023-02-16T07:42:55.616Z,3.71
2023-02-16T07:43:55.647Z,3.71
2023-02-16T07:44:55.594Z,3.68
2023-02-16T07:45:55.645Z,3.71
2023-02-16T07:46:55.588Z,3.65
2023-02-16T07:47:55.578Z,3.67
2023-02-16T07:48:55.600Z,3.65
2023-02-16T07:49:55.559Z,3.72
2023-02-16T07:50:55.540Z,3.62
2023-02-16T07:51:55.537Z,3.79
2023-02-16T07:52:55.505Z,3.71
2023-02-16T07:53:55.527Z,3.72
2023-02-16T07:54:55.497Z,3.65
2023-02-16T07:55:55.474Z,3.82
2023-02-16T07:56:55.463Z,3.85
2023-02-16T07:57:55.450Z,3.85
2023-02-16T07:58:55.456Z,3.86
2023-02-16T07:59:55.456Z,3.78
2023-02-16T08:00:55.431Z,3.97
2023-02-16T08:01:55.560Z,4.04
2023-02-16T08:02:55.582Z,4.01
2023-02-16T08:03:55.413Z,3.98
2023-02-16T08:04:55.399Z,4.08
2023-02-16T08:05:55.376Z,4.04
2023-02-16T08:06:55.350Z,3.89
2023-02-16T08:07:55.339Z,4.06
2023-02-16T08:08:55.354Z,4.06
2023-02-16T08:09:55.336Z,4.12
2023-02-16T08:10:55.302Z,4.19
2023-02-16T08:11:55.309Z,4.12
2023-02-16T08:12:55.285Z,4.21
2023-02-16T08:13:55.307Z,4.22
2023-02-16T08:14:55.277Z,4.28
2023-02-16T08:15:55.260Z,4.28
2023-02-16T08:16:56.687Z,4.15
2023-02-16T08:17:55.248Z,4.28
2023-02-16T08:18:55.231Z,4.34
2023-02-16T08:19:55.231Z,4.34
2023-02-16T08:21:04.105Z,4.25
2023-02-16T08:21:56.188Z,4.33
2023-02-16T08:22:55.180Z,4.36
2023-02-16T08:23:55.186Z,4.33
2023-02-16T08:24:55.170Z,4.29
2023-02-16T08:25:55.157Z,4.43
2023-02-16T08:26:55.141Z,4.29
2023-02-16T08:27:55.116Z,4.39
2023-02-16T08:28:55.137Z,4.42
2023-02-16T08:29:55.149Z,4.42
2023-02-16T08:30:55.122Z,4.43
2023-02-16T08:31:55.107Z,4.46
2023-02-16T08:32:55.072Z,4.54
2023-02-16T08:33:55.082Z,4.52
2023-02-16T08:34:55.047Z,4.47
2023-02-16T08:35:55.029Z,4.51
2023-02-16T08:36:55.052Z,4.69
2023-02-16T08:37:55.027Z,4.61
2023-02-16T08:38:55.029Z,4.67
2023-02-16T08:39:54.985Z,4.69
2023-02-16T08:40:54.981Z,4.67
2023-02-16T08:41:54.977Z,4.65
2023-02-16T08:42:54.970Z,4.64
2023-02-16T08:43:54.956Z,4.72
2023-02-16T08:44:55.030Z,4.65
2023-02-16T08:45:54.948Z,4.72
2023-02-16T08:46:54.915Z,4.72
2023-02-16T08:47:54.911Z,4.77
2023-02-16T08:48:55.919Z,4.70
2023-02-16T08:49:54.901Z,4.72
2023-02-16T08:50:54.870Z,4.79
2023-02-16T08:51:54.970Z,4.84
2023-02-16T08:52:54.885Z,4.77
2023-02-16T08:53:54.841Z,4.84
2023-02-16T08:54:54.848Z,4.86
2023-02-16T08:55:54.806Z,4.98
2023-02-16T08:56:54.811Z,4.83
2023-02-16T08:57:54.777Z,4.95
2023-02-16T08:58:54.783Z,4.98
2023-02-16T08:59:54.786Z,5.04
2023-02-16T09:00:54.824Z,5.16
2023-02-16T09:01:54.735Z,5.09
2023-02-16T09:02:54.728Z,5.10
2023-02-16T09:03:54.711Z,5.27
2023-02-16T09:04:54.725Z,5.35
2023-02-16T09:05:54.693Z,5.34
2023-02-16T09:06:54.692Z,5.46
2023-02-16T09:07:54.681Z,5.41
2023-02-16T09:08:54.693Z,5.50
2023-02-16T09:09:54.666Z,5.67
2023-02-16T09:10:54.652Z,5.70
2023-02-16T09:11:54.640Z,5.74
2023-02-16T09:12:54.635Z,5.82
2023-02-16T09:13:54.636Z,5.83
2023-02-16T09:14:54.598Z,5.81
2023-02-16T09:15:54.598Z,5.89
2023-02-16T09:16:54.653Z,5.96
2023-02-16T09:17:54.561Z,5.93
2023-02-16T09:18:54.554Z,5.86
2023-02-16T09:19:54.545Z,5.93
2023-02-16T09:20:54.540Z,6.03
2023-02-16T09:21:54.513Z,6.01
2023-02-16T09:22:54.537Z,6.03
2023-02-16T09:23:54.489Z,6.09
2023-02-16T09:24:54.589Z,6.14
2023-02-16T09:25:54.480Z,6.11
2023-02-16T09:26:54.457Z,6.25
2023-02-16T09:27:54.443Z,6.35
2023-02-16T09:28:54.462Z,6.53
2023-02-16T09:29:54.465Z,6.46
2023-02-16T09:30:54.562Z,6.76
2023-02-16T09:31:54.453Z,6.80
2023-02-16T09:32:54.389Z,6.94
2023-02-16T09:33:54.379Z,7.05
2023-02-16T09:34:54.374Z,7.20
2023-02-16T09:35:54.354Z,7.27
2023-02-16T09:36:54.360Z,7.52
2023-02-16T09:37:54.344Z,7.63
2023-02-16T09:38:54.358Z,7.97
2023-02-16T09:39:54.426Z,8.17
2023-02-16T09:40:54.324Z,8.30
2023-02-16T09:41:54.287Z,8.62
2023-02-16T09:42:54.292Z,8.63
2023-02-16T09:43:54.279Z,8.79
2023-02-16T09:44:54.281Z,8.79
2023-02-16T09:45:54.269Z,8.86
2023-02-16T09:46:54.243Z,8.83
2023-02-16T09:47:54.247Z,8.57
2023-02-16T09:48:54.222Z,8.55
2023-02-16T09:49:54.214Z,8.57
2023-02-16T09:50:54.867Z,8.63
2023-02-16T09:51:54.190Z,8.68
2023-02-16T09:52:54.182Z,8.71
2023-02-16T09:53:54.152Z,8.62
2023-02-16T09:54:54.160Z,8.88
2023-02-16T09:55:54.139Z,8.93
2023-02-16T09:56:54.156Z,8.91
2023-02-16T09:57:54.120Z,8.94
2023-02-16T09:58:54.116Z,8.71
2023-02-16T09:59:54.093Z,8.71
2023-02-16T10:00:54.078Z,8.78
2023-02-16T10:01:54.061Z,8.75
2023-02-16T10:02:54.058Z,8.81
2023-02-16T10:03:54.094Z,8.88
2023-02-16T10:04:54.031Z,8.96
2023-02-16T10:05:54.026Z,8.91
2023-02-16T10:06:54.027Z,8.99
2023-02-16T10:07:54.005Z,8.93
2023-02-16T10:08:53.987Z,9.02
2023-02-16T10:09:54.031Z,9.02
2023-02-16T10:10:53.976Z,8.97
2023-02-16T10:11:53.948Z,8.90
2023-02-16T10:12:53.967Z,8.87
2023-02-16T10:13:53.940Z,8.83
2023-02-16T10:14:53.950Z,8.90
2023-02-16T10:15:54.193Z,8.91
2023-02-16T10:16:53.921Z,8.88
2023-02-16T10:17:53.880Z,8.84
2023-02-16T10:18:53.885Z,8.78
2023-02-16T10:19:53.887Z,8.87
2023-02-16T10:20:53.864Z,9.02
2023-02-16T10:21:53.839Z,8.87
2023-02-16T10:22:53.842Z,8.83
2023-02-16T10:23:53.829Z,8.78
2023-02-16T10:24:53.824Z,8.86
2023-02-16T10:25:53.793Z,8.86
2023-02-16T10:26:53.784Z,8.81
2023-02-16T10:27:54.718Z,8.79
2023-02-16T10:28:53.793Z,8.99
2023-02-16T10:29:53.766Z,8.88
2023-02-16T10:30:53.867Z,8.93
2023-02-16T10:31:53.885Z,8.90
2023-02-16T10:32:53.734Z,9.01
2023-02-16T10:33:53.718Z,8.99
2023-02-16T10:34:54.236Z,8.91
2023-02-16T10:35:53.697Z,8.84
2023-02-16T10:36:53.688Z,8.86
2023-02-16T10:37:53.660Z,8.94
2023-02-16T10:38:53.666Z,9.01
2023-02-16T10:39:53.639Z,8.99
2023-02-16T10:40:53.679Z,8.93
2023-02-16T10:41:53.630Z,8.93
2023-02-16T10:42:53.630Z,8.99
2023-02-16T10:43:53.606Z,9.01
2023-02-16T10:44:53.609Z,8.99
2023-02-16T10:45:53.593Z,9.15
2023-02-16T10:46:53.578Z,9.15
2023-02-16T10:47:53.549Z,9.09
2023-02-16T10:48:53.544Z,9.23
2023-02-16T10:49:53.540Z,9.25
2023-02-16T10:50:53.532Z,9.15
2023-02-16T10:51:53.536Z,9.25
2023-02-16T10:52:53.512Z,9.10
2023-02-16T10:53:53.485Z,9.01
2023-02-16T10:54:53.478Z,9.05
2023-02-16T10:55:53.462Z,9.06
2023-02-16T10:56:53.470Z,8.97
2023-02-16T10:57:53.474Z,9.09
2023-02-16T10:58:53.446Z,9.15
2023-02-16T10:59:53.417Z,9.25
2023-02-16T11:00:53.448Z,9.16
2023-02-16T11:01:53.431Z,9.32
2023-02-16T11:02:53.419Z,9.27
2023-02-16T11:03:53.393Z,9.43
2023-02-16T11:04:53.383Z,9.40
2023-02-16T11:05:53.373Z,9.45
2023-02-16T11:06:53.378Z,9.46
2023-02-16T11:07:53.337Z,9.52
2023-02-16T11:08:53.335Z,9.57
2023-02-16T11:09:53.309Z,9.67
2023-02-16T11:10:53.312Z,9.64
2023-02-16T11:11:53.296Z,9.73
2023-02-16T11:12:53.311Z,9.67
2023-02-16T11:13:53.261Z,9.70
2023-02-16T11:14:53.275Z,9.68
2023-02-16T11:15:53.274Z,9.46
2023-02-16T11:16:53.266Z,9.52
2023-02-16T11:17:53.258Z,9.60
2023-02-16T11:18:53.226Z,9.63
2023-02-16T11:19:53.210Z,9.57
2023-02-16T11:20:53.209Z,9.64
2023-02-16T11:21:53.190Z,9.50
2023-02-16T11:22:53.213Z,9.56
2023-02-16T11:23:53.163Z,9.63
2023-02-16T11:24:53.175Z,9.53
2023-02-16T11:25:53.129Z,9.53
2023-02-16T11:26:53.140Z,9.61
2023-02-16T11:27:53.127Z,9.61
2023-02-16T11:28:53.136Z,9.64
2023-02-16T11:29:53.141Z,9.63
2023-02-16T11:30:53.154Z,9.73
2023-02-16T11:31:53.238Z,9.73
2023-02-16T11:32:53.129Z,9.76
2023-02-16T11:33:53.057Z,9.75
2023-02-16T11:34:53.058Z,9.76
2023-02-16T11:35:53.039Z,9.93
2023-02-16T11:36:53.031Z,9.99
2023-02-16T11:37:53.022Z,9.89
2023-02-16T11:38:53.001Z,10.04
2023-02-16T11:39:52.973Z,9.99
2023-02-16T11:40:52.961Z,10.06
2023-02-16T11:41:52.959Z,10.07
2023-02-16T11:42:52.952Z,10.10
2023-02-16T11:43:52.935Z,10.15
2023-02-16T11:44:52.923Z,10.21
2023-02-16T11:45:52.901Z,10.21
2023-02-16T11:46:52.962Z,10.18
2023-02-16T11:47:52.921Z,10.30
2023-02-16T11:48:52.898Z,10.28
2023-02-16T11:49:52.862Z,10.28
2023-02-16T11:50:54.545Z,10.36
2023-02-16T11:51:52.842Z,10.24
2023-02-16T11:52:52.850Z,10.28
2023-02-16T11:53:52.803Z,10.15
2023-02-16T11:54:52.797Z,10.21
2023-02-16T11:55:52.796Z,10.21
2023-02-16T11:56:52.778Z,10.21
2023-02-16T11:57:52.772Z,10.34
2023-02-16T11:58:52.767Z,10.46
2023-02-16T11:59:52.742Z,10.40
2023-02-16T12:00:52.745Z,10.44
2023-02-16T12:01:52.726Z,10.37
2023-02-16T12:02:52.731Z,10.46
2023-02-16T12:03:52.743Z,10.47
2023-02-16T12:04:52.786Z,10.42
2023-02-16T12:05:52.671Z,10.42
2023-02-16T12:06:52.680Z,10.37
2023-02-16T12:07:52.683Z,10.34
2023-02-16T12:08:52.659Z,10.44
2023-02-16T12:09:52.636Z,10.33
2023-02-16T12:10:52.615Z,10.24
2023-02-16T12:11:52.601Z,10.37
2023-02-16T12:12:52.627Z,10.37
2023-02-16T12:13:52.591Z,10.37
2023-02-16T12:14:52.584Z,10.28
2023-02-16T12:15:52.584Z,10.34
2023-02-16T12:16:52.549Z,10.40
2023-02-16T12:17:52.554Z,10.33
2023-02-16T12:18:52.526Z,10.28
2023-02-16T12:19:52.516Z,10.28
2023-02-16T12:20:52.529Z,10.25
2023-02-16T12:21:52.502Z,10.25
2023-02-16T12:22:52.495Z,10.33
2023-02-16T12:23:52.476Z,10.26
2023-02-16T12:24:52.464Z,10.32
2023-02-16T12:25:52.441Z,10.32
2023-02-16T12:26:52.440Z,10.24
2023-02-16T12:27:52.422Z,10.26
2023-02-16T12:28:52.446Z,10.28
2023-02-16T12:29:52.458Z,10.32
2023-02-16T12:30:52.428Z,10.25
2023-02-16T12:31:52.437Z,10.34
2023-02-16T12:32:52.368Z,10.30
2023-02-16T12:33:52.370Z,10.37
2023-02-16T12:34:52.368Z,10.33
2023-02-16T12:35:52.342Z,10.46
2023-02-16T12:36:52.365Z,10.53
2023-02-16T12:37:52.348Z,10.47
2023-02-16T12:38:52.301Z,10.51
2023-02-16T12:39:52.304Z,10.44
2023-02-16T12:40:52.285Z,10.56
2023-02-16T12:41:52.277Z,10.44
2023-02-16T12:42:52.272Z,10.46
2023-02-16T12:43:52.278Z,10.62
2023-02-16T12:44:52.234Z,10.59
2023-02-16T12:45:52.261Z,10.58
2023-02-16T12:46:52.227Z,10.53
2023-02-16T12:47:52.198Z,10.56
2023-02-16T12:48:52.198Z,10.68
2023-02-16T12:49:52.199Z,10.56
2023-02-16T12:50:52.171Z,10.44
2023-02-16T12:51:52.146Z,10.62
2023-02-16T12:52:52.169Z,10.58
2023-02-16T12:53:52.144Z,10.70
2023-02-16T12:54:52.123Z,10.60
2023-02-16T12:55:52.126Z,10.71
2023-02-16T12:56:52.147Z,10.65
2023-02-16T12:57:52.096Z,10.58
2023-02-16T12:58:52.091Z,10.73
2023-02-16T12:59:52.057Z,10.65
2023-02-16T13:00:52.072Z,10.66
2023-02-16T13:01:52.039Z,10.62
2023-02-16T13:02:52.036Z,10.71
2023-02-16T13:03:52.056Z,10.71
2023-02-16T13:04:52.016Z,10.66
2023-02-16T13:05:52.007Z,10.76
2023-02-16T13:06:51.979Z,10.76
2023-02-16T13:07:51.971Z,10.63
2023-02-16T13:08:52.010Z,10.70
2023-02-16T13:09:51.956Z,10.74
2023-02-16T13:10:51.941Z,10.74
2023-02-16T13:11:51.944Z,10.73
2023-02-16T13:12:51.926Z,10.68
2023-02-16T13:13:51.966Z,10.70
2023-02-16T13:14:54.020Z,10.76
2023-02-16T13:15:51.886Z,10.71
2023-02-16T13:16:51.936Z,10.73
2023-02-16T13:17:51.880Z,10.76
2023-02-16T13:18:51.847Z,10.80
2023-02-16T13:19:51.872Z,10.68
2023-02-16T13:20:51.838Z,10.70
2023-02-16T13:21:52.141Z,10.65
2023-02-16T13:22:51.801Z,10.71
2023-02-16T13:23:51.809Z,10.84
2023-02-16T13:24:51.847Z,10.83
2023-02-16T13:25:51.911Z,10.77
2023-02-16T13:26:51.771Z,10.83
2023-02-16T13:27:51.764Z,10.95
2023-02-16T13:28:51.862Z,10.84
2023-02-16T13:29:51.745Z,10.96